首页
METAR-TAF:

METAR-TAF

机场 :

拉罗汤加岛, 库克群岛

拉罗汤加国际机场

纬度: 21-12S, 经度: 159-49W, 海拔: 7米

当前天气观测

该预报发布于18分钟前的13:00 UTC
风速1节,风向
温度 24°C
湿度 89%
气压 1013 hPa
能见度10公里或以上
少量云层高于1800英尺

METAR: NCRG 171300Z 08001KT 9999 FEW018 24/22 Q1013

时间: 03:18 (13:18 UTC)

预报

该预报发布于1小时和55分钟前的11:23 UTC
预报有效从17日的 12点(UTC)到 18日的 12点(UTC)
风速5节,风向东南
能见度10公里或以上
散云层高于2000英尺
多云层高于10000英尺

TAF: NCRG 171123Z 1712/1812 14005KT 9999 SCT020 BKN100

超过4000个机场的气象观测和天气预报(METAR&TAF报告)。

可查询的气象台以黄色和红色小点在地图上表示。

将鼠标移到小点上方,可查看气象台名称。

然后点击查看天气观测和预报。

如需切换地图:点击带黑十字的绿色按钮放大地图;点击带横线的绿色按钮缩小地图;或者点击绿色箭头查看邻近地区的地图。


METAR-TAF: